createdAt,value
2022-07-25T00:00:01.504Z,1004.86
2022-07-25T00:01:01.487Z,1004.90
2022-07-25T00:02:56.682Z,1004.87
2022-07-25T00:03:56.772Z,1004.86
2022-07-25T00:05:50.839Z,1004.89
2022-07-25T00:06:50.828Z,1004.87
2022-07-25T00:08:44.927Z,1004.82
2022-07-25T00:09:44.906Z,1004.81
2022-07-25T00:11:39.098Z,1004.82
2022-07-25T00:12:39.093Z,1004.82
2022-07-25T00:14:33.192Z,1004.78
2022-07-25T00:15:33.187Z,1004.77
2022-07-25T00:17:28.356Z,1004.75
2022-07-25T00:18:28.335Z,1004.74
2022-07-25T00:20:22.431Z,1004.71
2022-07-25T00:21:22.427Z,1004.71
2022-07-25T00:23:16.536Z,1004.68
2022-07-25T00:24:16.514Z,1004.66
2022-07-25T00:26:10.612Z,1004.65
2022-07-25T00:27:10.607Z,1004.64
2022-07-25T00:29:04.702Z,1004.61
2022-07-25T00:30:04.690Z,1004.60
2022-07-25T00:31:58.865Z,1004.57
2022-07-25T00:32:58.852Z,1004.60
2022-07-25T00:34:52.906Z,1004.58
2022-07-25T00:35:52.897Z,1004.60
2022-07-25T00:37:47.028Z,1004.55
2022-07-25T00:38:47.011Z,1004.54
2022-07-25T00:40:41.074Z,1004.51
2022-07-25T00:41:41.070Z,1004.48
2022-07-25T00:43:35.141Z,1004.49
2022-07-25T00:44:35.129Z,1004.43
2022-07-25T00:46:29.231Z,1004.43
2022-07-25T00:47:29.193Z,1004.40
2022-07-25T00:49:23.261Z,1004.36
2022-07-25T00:50:23.247Z,1004.38
2022-07-25T00:52:17.357Z,1004.33
2022-07-25T00:53:17.341Z,1004.29
2022-07-25T00:55:12.426Z,1004.30
2022-07-25T00:56:12.420Z,1004.28
2022-07-25T00:58:07.697Z,1004.32
2022-07-25T00:59:07.678Z,1004.29
2022-07-25T01:01:01.858Z,1004.29
2022-07-25T01:02:03.733Z,1004.29
2022-07-25T01:03:55.950Z,1004.28
2022-07-25T01:04:55.930Z,1004.27
2022-07-25T01:06:50.006Z,1004.25
2022-07-25T01:07:50.001Z,1004.20
2022-07-25T01:09:44.091Z,1004.26
2022-07-25T01:10:44.080Z,1004.23
2022-07-25T01:12:38.043Z,1004.17
2022-07-25T01:13:38.034Z,1004.14
2022-07-25T01:15:32.165Z,1004.11
2022-07-25T01:16:32.124Z,1004.10
2022-07-25T01:18:26.247Z,1004.10
2022-07-25T01:19:26.232Z,1004.10
2022-07-25T01:21:20.328Z,1004.07
2022-07-25T01:22:20.321Z,1004.06
2022-07-25T01:24:14.408Z,1004.03
2022-07-25T01:25:15.264Z,1004.00
2022-07-25T01:27:09.552Z,1003.98
2022-07-25T01:28:09.540Z,1003.98
2022-07-25T01:30:03.267Z,1003.94
2022-07-25T01:31:03.282Z,1003.90
2022-07-25T01:32:57.315Z,1003.94
2022-07-25T01:33:57.299Z,1003.97
2022-07-25T01:35:51.381Z,1003.92
2022-07-25T01:36:51.376Z,1003.92
2022-07-25T01:38:45.562Z,1003.92
2022-07-25T01:39:45.546Z,1003.90
2022-07-25T01:41:40.676Z,1003.98
2022-07-25T01:42:40.670Z,1003.97
2022-07-25T01:44:35.748Z,1003.95
2022-07-25T01:45:35.735Z,1003.95
2022-07-25T01:47:29.793Z,1003.96
2022-07-25T01:48:29.855Z,1003.98
2022-07-25T01:50:24.546Z,1003.92
2022-07-25T01:51:26.393Z,1003.90
2022-07-25T01:53:18.675Z,1003.91
2022-07-25T01:54:18.665Z,1003.90
2022-07-25T01:56:12.905Z,1003.86
2022-07-25T01:57:12.904Z,1003.95
2022-07-25T01:59:08.013Z,1003.88
2022-07-25T02:00:08.000Z,1003.84
2022-07-25T02:02:04.251Z,1003.86
2022-07-25T02:03:04.113Z,1003.87
2022-07-25T02:04:58.357Z,1003.85
2022-07-25T02:05:58.206Z,1003.81
2022-07-25T02:07:52.286Z,1003.84
2022-07-25T02:08:52.259Z,1003.82
2022-07-25T02:10:47.348Z,1003.85
2022-07-25T02:11:47.347Z,1003.81
2022-07-25T02:13:41.426Z,1003.81
2022-07-25T02:14:41.409Z,1003.76
2022-07-25T02:16:35.565Z,1003.71
2022-07-25T02:17:35.476Z,1003.69
2022-07-25T02:19:29.597Z,1003.68
2022-07-25T02:20:29.588Z,1003.65
2022-07-25T02:22:23.331Z,1003.62
2022-07-25T02:23:23.326Z,1003.60
2022-07-25T02:25:17.494Z,1003.56
2022-07-25T02:26:17.484Z,1003.51
2022-07-25T02:28:11.696Z,1003.53
2022-07-25T02:29:11.682Z,1003.52
2022-07-25T02:31:06.788Z,1003.49
2022-07-25T02:32:06.757Z,1003.48
2022-07-25T02:34:00.837Z,1003.49
2022-07-25T02:35:00.826Z,1003.49
2022-07-25T02:36:55.092Z,1003.53
2022-07-25T02:37:55.086Z,1003.50
2022-07-25T02:39:49.171Z,1003.52
2022-07-25T02:40:49.162Z,1003.44
2022-07-25T02:42:43.263Z,1003.46
2022-07-25T02:43:43.253Z,1003.39
2022-07-25T02:45:37.415Z,1003.39
2022-07-25T02:46:37.426Z,1003.34
2022-07-25T02:48:32.511Z,1003.36
2022-07-25T02:49:32.471Z,1003.34
2022-07-25T02:51:27.523Z,1003.30
2022-07-25T02:52:27.522Z,1003.29
2022-07-25T02:54:21.615Z,1003.27
2022-07-25T02:55:21.597Z,1003.22
2022-07-25T02:57:15.686Z,1003.22
2022-07-25T02:58:15.679Z,1003.22
2022-07-25T03:00:10.764Z,1003.28
2022-07-25T03:01:10.776Z,1003.23
2022-07-25T03:03:04.826Z,1003.21
2022-07-25T03:04:05.213Z,1003.19
2022-07-25T03:05:59.896Z,1003.22
2022-07-25T03:06:59.881Z,1003.22
2022-07-25T03:08:53.726Z,1003.23
2022-07-25T03:09:53.710Z,1003.21
2022-07-25T03:11:48.838Z,1003.22
2022-07-25T03:12:48.829Z,1003.21
2022-07-25T03:14:42.981Z,1003.20
2022-07-25T03:15:42.961Z,1003.19
2022-07-25T03:17:37.046Z,1003.13
2022-07-25T03:18:37.048Z,1003.13
2022-07-25T03:20:31.144Z,1003.14
2022-07-25T03:21:31.125Z,1003.10
2022-07-25T03:23:26.178Z,1003.14
2022-07-25T03:24:26.173Z,1003.11
2022-07-25T03:26:20.291Z,1003.07
2022-07-25T03:27:20.272Z,1003.07
2022-07-25T03:29:14.397Z,1003.04
2022-07-25T03:30:14.354Z,1003.05
2022-07-25T03:32:09.459Z,1003.03
2022-07-25T03:33:09.417Z,1003.05
2022-07-25T03:35:03.513Z,1003.05
2022-07-25T03:36:03.499Z,1003.06
2022-07-25T03:37:57.582Z,1003.02
2022-07-25T03:38:57.577Z,1003.01
2022-07-25T03:40:51.699Z,1003.01
2022-07-25T03:41:51.686Z,1002.97
2022-07-25T03:43:45.764Z,1002.94
2022-07-25T03:44:45.759Z,1002.96
2022-07-25T03:46:39.843Z,1002.89
2022-07-25T03:47:39.823Z,1002.91
2022-07-25T03:49:33.885Z,1002.85
2022-07-25T03:50:33.869Z,1002.81
2022-07-25T03:52:28.101Z,1002.81
2022-07-25T03:53:28.095Z,1002.81
2022-07-25T03:55:22.198Z,1002.78
2022-07-25T03:56:22.181Z,1002.78
2022-07-25T03:58:16.262Z,1002.80
2022-07-25T03:59:16.258Z,1002.80
2022-07-25T04:01:10.756Z,1002.75
2022-07-25T04:02:10.398Z,1002.78
2022-07-25T04:04:04.983Z,1002.74
2022-07-25T04:05:04.708Z,1002.74
2022-07-25T04:06:58.799Z,1002.69
2022-07-25T04:07:58.789Z,1002.73
2022-07-25T04:09:52.911Z,1002.71
2022-07-25T04:10:52.898Z,1002.72
2022-07-25T04:12:46.979Z,1002.67
2022-07-25T04:13:46.970Z,1002.68
2022-07-25T04:15:41.059Z,1002.63
2022-07-25T04:16:41.069Z,1002.64
2022-07-25T04:18:35.096Z,1002.65
2022-07-25T04:19:35.084Z,1002.62
2022-07-25T04:21:29.237Z,1002.62
2022-07-25T04:22:29.221Z,1002.65
2022-07-25T04:24:23.274Z,1002.64
2022-07-25T04:25:23.267Z,1002.64
2022-07-25T04:27:17.340Z,1002.64
2022-07-25T04:28:17.322Z,1002.58
2022-07-25T04:30:11.098Z,1002.59
2022-07-25T04:31:11.094Z,1002.56
2022-07-25T04:33:06.185Z,1002.58
2022-07-25T04:34:06.419Z,1002.56
2022-07-25T04:36:00.331Z,1002.49
2022-07-25T04:37:00.316Z,1002.55
2022-07-25T04:38:54.021Z,1002.50
2022-07-25T04:39:54.015Z,1002.49
2022-07-25T04:41:48.083Z,1002.44
2022-07-25T04:42:48.067Z,1002.44
2022-07-25T04:44:42.158Z,1002.41
2022-07-25T04:45:42.218Z,1002.39
2022-07-25T04:47:36.334Z,1002.38
2022-07-25T04:48:36.388Z,1002.39
2022-07-25T04:50:30.382Z,1002.38
2022-07-25T04:51:30.373Z,1002.35
2022-07-25T04:53:24.451Z,1002.36
2022-07-25T04:54:24.437Z,1002.43
2022-07-25T04:56:18.594Z,1002.41
2022-07-25T04:57:18.581Z,1002.37
2022-07-25T04:59:12.678Z,1002.40
2022-07-25T05:00:12.679Z,1002.37
2022-07-25T05:02:06.871Z,1002.38
2022-07-25T05:03:06.755Z,1002.35
2022-07-25T05:05:02.893Z,1002.33
2022-07-25T05:06:00.830Z,1002.35
2022-07-25T05:07:54.920Z,1002.30
2022-07-25T05:08:54.910Z,1002.33
2022-07-25T05:10:50.005Z,1002.35
2022-07-25T05:11:55.893Z,1002.36
2022-07-25T05:13:45.093Z,1002.35
2022-07-25T05:14:45.089Z,1002.30
2022-07-25T05:16:39.192Z,1002.33
2022-07-25T05:17:39.157Z,1002.32
2022-07-25T05:19:33.257Z,1002.31
2022-07-25T05:20:33.246Z,1002.32
2022-07-25T05:22:28.621Z,1002.33
2022-07-25T05:23:28.296Z,1002.33
2022-07-25T05:25:22.348Z,1002.26
2022-07-25T05:26:22.336Z,1002.27
2022-07-25T05:28:16.572Z,1002.26
2022-07-25T05:29:16.558Z,1002.23
2022-07-25T05:31:10.710Z,1002.22
2022-07-25T05:32:10.643Z,1002.21
2022-07-25T05:34:05.068Z,1002.20
2022-07-25T05:35:04.804Z,1002.22
2022-07-25T05:36:58.964Z,1002.20
2022-07-25T05:37:58.949Z,1002.23
2022-07-25T05:39:53.049Z,1002.20
2022-07-25T05:40:53.038Z,1002.21
2022-07-25T05:42:47.185Z,1002.19
2022-07-25T05:43:47.165Z,1002.13
2022-07-25T05:45:41.253Z,1002.15
2022-07-25T05:46:41.298Z,1002.14
2022-07-25T05:48:35.377Z,1002.01
2022-07-25T05:49:35.319Z,1002.01
2022-07-25T05:51:29.395Z,1001.97
2022-07-25T05:52:29.398Z,1002.00
2022-07-25T05:54:23.469Z,1001.97
2022-07-25T05:55:23.458Z,1002.02
2022-07-25T05:57:17.548Z,1002.01
2022-07-25T05:58:17.533Z,1002.01
2022-07-25T06:00:11.598Z,1002.02
2022-07-25T06:01:11.593Z,1002.00
2022-07-25T06:03:05.849Z,1001.96
2022-07-25T06:04:05.981Z,1001.95
2022-07-25T06:05:59.790Z,1001.90
2022-07-25T06:06:59.779Z,1001.95
2022-07-25T06:08:53.884Z,1001.91
2022-07-25T06:09:53.863Z,1001.91
2022-07-25T06:11:54.331Z,1001.90
2022-07-25T06:12:47.935Z,1001.88
2022-07-25T06:14:42.057Z,1001.89
2022-07-25T06:15:42.041Z,1001.91
2022-07-25T06:17:36.109Z,1001.89
2022-07-25T06:18:36.106Z,1001.86
2022-07-25T06:20:31.191Z,1001.84
2022-07-25T06:21:31.188Z,1001.89
2022-07-25T06:23:27.679Z,1001.86
2022-07-25T06:24:25.291Z,1001.90
2022-07-25T06:26:19.390Z,1001.94
2022-07-25T06:27:21.584Z,1001.92
2022-07-25T06:29:13.494Z,1001.96
2022-07-25T06:30:19.702Z,1001.97
2022-07-25T06:32:07.553Z,1002.02
2022-07-25T06:33:07.538Z,1002.02
2022-07-25T06:35:01.639Z,1002.10
2022-07-25T06:36:01.632Z,1002.11
2022-07-25T06:37:55.765Z,1002.05
2022-07-25T06:38:55.747Z,1002.08
2022-07-25T06:40:49.834Z,1002.10
2022-07-25T06:41:49.824Z,1002.09
2022-07-25T06:43:43.902Z,1002.10
2022-07-25T06:44:43.893Z,1002.08
2022-07-25T06:46:38.160Z,1002.07
2022-07-25T06:47:38.047Z,1002.03
2022-07-25T06:49:32.154Z,1002.02
2022-07-25T06:50:32.153Z,1002.04
2022-07-25T06:52:26.320Z,1002.01
2022-07-25T06:53:26.342Z,1002.04
2022-07-25T06:55:20.400Z,1002.11
2022-07-25T06:56:20.397Z,1002.16
2022-07-25T06:58:14.501Z,1002.12
2022-07-25T06:59:14.493Z,1002.16
2022-07-25T07:01:08.607Z,1002.16
2022-07-25T07:02:08.553Z,1002.15
2022-07-25T07:04:02.800Z,1002.19
2022-07-25T07:05:02.649Z,1002.14
2022-07-25T07:06:56.952Z,1002.04
2022-07-25T07:07:56.944Z,1002.06
2022-07-25T07:09:51.014Z,1002.17
2022-07-25T07:10:51.010Z,1002.24
2022-07-25T07:12:45.083Z,1002.22
2022-07-25T07:13:45.077Z,1002.20
2022-07-25T07:15:39.297Z,1002.11
2022-07-25T07:16:39.390Z,1002.14
2022-07-25T07:18:34.446Z,1002.22
2022-07-25T07:19:34.436Z,1002.14
2022-07-25T07:21:28.524Z,1001.97
2022-07-25T07:22:28.517Z,1001.88
2022-07-25T07:24:24.101Z,1001.88
2022-07-25T07:25:22.618Z,1001.85
2022-07-25T07:27:16.768Z,1001.89
2022-07-25T07:28:16.762Z,1001.90
2022-07-25T07:30:10.636Z,1001.89
2022-07-25T07:31:18.311Z,1001.82
2022-07-25T07:33:05.929Z,1001.81
2022-07-25T07:34:05.918Z,1001.83
2022-07-25T07:36:00.142Z,1001.88
2022-07-25T07:37:00.143Z,1001.90
2022-07-25T07:38:54.247Z,1001.87
2022-07-25T07:39:54.235Z,1001.89
2022-07-25T07:41:48.317Z,1001.85
2022-07-25T07:42:48.316Z,1001.86
2022-07-25T07:44:42.501Z,1001.86
2022-07-25T07:45:42.494Z,1001.82
2022-07-25T07:47:36.598Z,1001.79
2022-07-25T07:48:36.634Z,1001.77
2022-07-25T07:50:30.666Z,1001.74
2022-07-25T07:51:30.667Z,1001.76
2022-07-25T07:53:24.757Z,1001.74
2022-07-25T07:54:24.746Z,1001.75
2022-07-25T07:56:19.841Z,1001.71
2022-07-25T07:57:19.847Z,1001.69
2022-07-25T07:59:13.969Z,1001.65
2022-07-25T08:00:16.705Z,1001.65
2022-07-25T08:02:08.129Z,1001.64
2022-07-25T08:03:08.083Z,1001.67
2022-07-25T08:05:02.202Z,1001.69
2022-07-25T08:06:02.163Z,1001.69
2022-07-25T08:07:56.256Z,1001.67
2022-07-25T08:08:57.233Z,1001.61
2022-07-25T08:10:51.891Z,1001.66
2022-07-25T08:11:50.333Z,1001.67
2022-07-25T08:13:44.484Z,1001.58
2022-07-25T08:14:44.477Z,1001.57
2022-07-25T08:16:38.671Z,1001.59
2022-07-25T08:17:38.638Z,1001.60
2022-07-25T08:19:32.737Z,1001.63
2022-07-25T08:20:38.304Z,1001.66
2022-07-25T08:22:26.822Z,1001.70
2022-07-25T08:23:26.822Z,1001.65
2022-07-25T08:25:20.945Z,1001.56
2022-07-25T08:26:20.915Z,1001.46
2022-07-25T08:28:15.004Z,1001.41
2022-07-25T08:29:20.571Z,1001.50
2022-07-25T08:31:09.226Z,1001.55
2022-07-25T08:32:09.178Z,1001.61
2022-07-25T08:34:03.378Z,1001.70
2022-07-25T08:35:05.117Z,1001.62
2022-07-25T08:36:57.359Z,1001.66
2022-07-25T08:37:57.359Z,1001.67
2022-07-25T08:39:51.528Z,1001.68
2022-07-25T08:40:51.518Z,1001.66
2022-07-25T08:42:45.596Z,1001.68
2022-07-25T08:43:45.595Z,1001.73
2022-07-25T08:45:39.701Z,1001.70
2022-07-25T08:46:39.719Z,1001.71
2022-07-25T08:48:34.834Z,1001.82
2022-07-25T08:49:34.778Z,1001.84
2022-07-25T08:51:28.844Z,1001.80
2022-07-25T08:52:28.847Z,1001.79
2022-07-25T08:54:22.973Z,1001.81
2022-07-25T08:55:22.928Z,1001.74
2022-07-25T08:57:17.117Z,1001.67
2022-07-25T08:58:17.116Z,1001.57
2022-07-25T09:00:11.229Z,1001.57
2022-07-25T09:01:11.248Z,1001.59
2022-07-25T09:03:05.454Z,1001.62
2022-07-25T09:04:05.520Z,1001.61
2022-07-25T09:05:59.415Z,1001.66
2022-07-25T09:06:59.415Z,1001.70
2022-07-25T09:08:53.534Z,1001.77
2022-07-25T09:09:53.527Z,1001.76
2022-07-25T09:11:47.620Z,1001.75
2022-07-25T09:12:47.632Z,1001.79
2022-07-25T09:14:41.923Z,1001.66
2022-07-25T09:15:41.962Z,1001.68
2022-07-25T09:17:36.653Z,1001.67
2022-07-25T09:18:36.648Z,1001.61
2022-07-25T09:20:30.822Z,1001.61
2022-07-25T09:21:30.821Z,1001.59
2022-07-25T09:23:24.965Z,1001.61
2022-07-25T09:24:24.961Z,1001.67
2022-07-25T09:26:19.033Z,1001.70
2022-07-25T09:27:19.033Z,1001.71
2022-07-25T09:29:16.186Z,1001.63
2022-07-25T09:30:13.091Z,1001.66
2022-07-25T09:32:07.198Z,1001.70
2022-07-25T09:33:07.195Z,1001.68
2022-07-25T09:35:01.334Z,1001.74
2022-07-25T09:36:01.314Z,1001.75
2022-07-25T09:37:55.410Z,1001.82
2022-07-25T09:38:55.417Z,1001.81
2022-07-25T09:40:49.529Z,1001.83
2022-07-25T09:41:49.524Z,1001.86
2022-07-25T09:43:43.782Z,1001.88
2022-07-25T09:44:43.778Z,1001.82
2022-07-25T09:46:38.034Z,1001.78
2022-07-25T09:47:37.963Z,1001.82
2022-07-25T09:49:32.334Z,1001.92
2022-07-25T09:50:32.325Z,1001.96
2022-07-25T09:52:28.489Z,1001.97
2022-07-25T09:53:28.495Z,1001.93
2022-07-25T09:55:22.607Z,1001.99
2022-07-25T09:56:22.599Z,1002.03
2022-07-25T09:58:16.748Z,1001.98
2022-07-25T09:59:16.755Z,1002.03
2022-07-25T10:01:11.067Z,1001.96
2022-07-25T10:02:11.108Z,1001.93
2022-07-25T10:04:06.597Z,1001.95
2022-07-25T10:05:06.264Z,1001.92
2022-07-25T10:07:00.368Z,1001.96
2022-07-25T10:08:00.371Z,1001.96
2022-07-25T10:09:54.502Z,1001.95
2022-07-25T10:10:54.494Z,1001.99
2022-07-25T10:12:48.601Z,1002.01
2022-07-25T10:13:48.604Z,1001.93
2022-07-25T10:15:42.875Z,1001.99
2022-07-25T10:16:42.949Z,1002.03
2022-07-25T10:18:37.103Z,1001.98
2022-07-25T10:19:37.099Z,1001.98
2022-07-25T10:21:31.210Z,1001.89
2022-07-25T10:22:54.732Z,1001.87
2022-07-25T10:24:25.322Z,1001.89
2022-07-25T10:25:25.316Z,1001.89
2022-07-25T10:27:19.389Z,1001.84
2022-07-25T10:28:19.390Z,1001.78
2022-07-25T10:30:13.191Z,1001.71
2022-07-25T10:31:13.244Z,1001.70
2022-07-25T10:33:07.315Z,1001.69
2022-07-25T10:34:07.801Z,1001.72
2022-07-25T10:36:01.410Z,1001.77
2022-07-25T10:37:01.407Z,1001.72
2022-07-25T10:38:55.495Z,1001.62
2022-07-25T10:39:55.498Z,1001.52
2022-07-25T10:41:49.723Z,1001.45
2022-07-25T10:42:49.714Z,1001.47
2022-07-25T10:44:43.801Z,1001.58
2022-07-25T10:45:43.871Z,1001.60
2022-07-25T10:47:37.913Z,1001.73
2022-07-25T10:48:37.996Z,1001.79
2022-07-25T10:50:54.325Z,1001.90
2022-07-25T10:51:32.034Z,1001.92
2022-07-25T10:53:26.108Z,1001.97
2022-07-25T10:54:26.117Z,1001.97
2022-07-25T10:56:20.205Z,1002.03
2022-07-25T10:57:20.198Z,1002.12
2022-07-25T10:59:14.277Z,1002.13
2022-07-25T11:00:14.275Z,1002.14
2022-07-25T11:02:08.528Z,1002.13
2022-07-25T11:03:08.423Z,1002.04
2022-07-25T11:05:02.575Z,1001.93
2022-07-25T11:06:02.563Z,1001.91
2022-07-25T11:08:20.538Z,1001.99
2022-07-25T11:08:56.670Z,1002.01
2022-07-25T11:10:50.781Z,1002.02
2022-07-25T11:11:50.772Z,1002.00
2022-07-25T11:13:44.865Z,1001.96
2022-07-25T11:14:44.868Z,1001.95
2022-07-25T11:16:39.164Z,1001.83
2022-07-25T11:17:39.056Z,1001.76
2022-07-25T11:19:33.180Z,1001.69
2022-07-25T11:20:33.180Z,1001.69
2022-07-25T11:22:27.259Z,1001.83
2022-07-25T11:23:27.257Z,1001.89
2022-07-25T11:25:21.357Z,1001.98
2022-07-25T11:26:21.352Z,1002.00
2022-07-25T11:28:15.450Z,1001.98
2022-07-25T11:29:15.448Z,1001.99
2022-07-25T11:31:09.554Z,1002.02
2022-07-25T11:32:09.659Z,1002.02
2022-07-25T11:34:03.666Z,1002.00
2022-07-25T11:35:03.662Z,1001.97
2022-07-25T11:36:57.721Z,1002.06
2022-07-25T11:37:57.710Z,1002.09
2022-07-25T11:39:53.075Z,1002.05
2022-07-25T11:40:51.798Z,1002.06
2022-07-25T11:42:47.098Z,1002.04
2022-07-25T11:43:47.094Z,1002.04
2022-07-25T11:45:41.294Z,1002.02
2022-07-25T11:46:41.250Z,1002.06
2022-07-25T11:48:35.388Z,1002.04
2022-07-25T11:49:35.338Z,1002.04
2022-07-25T11:51:30.491Z,1002.04
2022-07-25T11:52:30.476Z,1002.03
2022-07-25T11:54:24.571Z,1001.99
2022-07-25T11:55:24.561Z,1002.00
2022-07-25T11:57:19.705Z,1002.02
2022-07-25T11:58:19.698Z,1002.06
2022-07-25T12:00:13.792Z,1002.01
2022-07-25T12:01:13.786Z,1002.00
2022-07-25T12:03:07.920Z,1002.03
2022-07-25T12:04:07.842Z,1002.07
2022-07-25T12:06:01.999Z,1002.05
2022-07-25T12:07:01.987Z,1002.03
2022-07-25T12:08:56.088Z,1002.03
2022-07-25T12:09:56.088Z,1002.08
2022-07-25T12:11:50.294Z,1002.05
2022-07-25T12:12:50.273Z,1002.09
2022-07-25T12:14:44.343Z,1002.11
2022-07-25T12:15:44.334Z,1002.09
2022-07-25T12:17:38.499Z,1002.09
2022-07-25T12:18:38.499Z,1002.05
2022-07-25T12:20:32.585Z,1002.05
2022-07-25T12:21:32.574Z,1002.10
2022-07-25T12:23:26.657Z,1002.11
2022-07-25T12:24:26.660Z,1002.08
2022-07-25T12:26:20.742Z,1002.07
2022-07-25T12:27:20.733Z,1002.08
2022-07-25T12:29:14.821Z,1002.15
2022-07-25T12:30:14.821Z,1002.13
2022-07-25T12:32:08.909Z,1002.15
2022-07-25T12:33:08.902Z,1002.21
2022-07-25T12:35:03.054Z,1002.16
2022-07-25T12:36:08.080Z,1002.16
2022-07-25T12:37:57.225Z,1002.17
2022-07-25T12:38:57.208Z,1002.18
2022-07-25T12:40:51.315Z,1002.18
2022-07-25T12:41:51.308Z,1002.15
2022-07-25T12:43:45.535Z,1002.13
2022-07-25T12:44:45.537Z,1002.15
2022-07-25T12:46:39.675Z,1002.12
2022-07-25T12:47:39.670Z,1002.12
2022-07-25T12:49:33.758Z,1002.11
2022-07-25T12:50:33.759Z,1002.14
2022-07-25T12:52:27.928Z,1002.10
2022-07-25T12:53:27.921Z,1002.14
2022-07-25T12:55:22.038Z,1002.05
2022-07-25T12:56:22.026Z,1002.08
2022-07-25T12:58:16.217Z,1002.06
2022-07-25T12:59:16.211Z,1002.13
2022-07-25T13:01:10.027Z,1002.06
2022-07-25T13:02:10.006Z,1002.09
2022-07-25T13:04:04.025Z,1002.05
2022-07-25T13:05:04.025Z,1002.10
2022-07-25T13:06:59.134Z,1002.08
2022-07-25T13:07:59.124Z,1002.15
2022-07-25T13:09:53.267Z,1002.25
2022-07-25T13:10:53.270Z,1002.26
2022-07-25T13:12:47.388Z,1002.24
2022-07-25T13:13:47.379Z,1002.19
2022-07-25T13:15:41.472Z,1002.18
2022-07-25T13:16:41.485Z,1002.15
2022-07-25T13:18:35.567Z,1002.13
2022-07-25T13:19:35.574Z,1002.05
2022-07-25T13:21:29.653Z,1002.08
2022-07-25T13:22:29.643Z,1002.13
2022-07-25T13:24:23.727Z,1002.12
2022-07-25T13:25:23.727Z,1002.11
2022-07-25T13:27:17.889Z,1002.11
2022-07-25T13:28:17.878Z,1002.11
2022-07-25T13:30:13.745Z,1002.08
2022-07-25T13:31:13.799Z,1002.15
2022-07-25T13:33:07.828Z,1002.16
2022-07-25T13:34:07.823Z,1002.19
2022-07-25T13:36:01.964Z,1002.15
2022-07-25T13:37:01.957Z,1002.26
2022-07-25T13:38:57.076Z,1002.16
2022-07-25T13:39:57.080Z,1002.16
2022-07-25T13:41:51.151Z,1002.10
2022-07-25T13:42:51.145Z,1002.14
2022-07-25T13:44:45.251Z,1002.22
2022-07-25T13:45:45.315Z,1002.14
2022-07-25T13:47:39.408Z,1002.20
2022-07-25T13:48:39.406Z,1002.22
2022-07-25T13:50:33.490Z,1002.15
2022-07-25T13:51:33.483Z,1002.20
2022-07-25T13:53:30.246Z,1002.20
2022-07-25T13:54:27.585Z,1002.22
2022-07-25T13:56:21.693Z,1002.20
2022-07-25T13:57:21.679Z,1002.19
2022-07-25T13:59:20.851Z,1002.20
2022-07-25T14:00:15.761Z,1002.32
2022-07-25T14:02:09.944Z,1002.32
2022-07-25T14:03:09.892Z,1002.26
2022-07-25T14:05:04.496Z,1002.25
2022-07-25T14:06:04.013Z,1002.21
2022-07-25T14:07:58.123Z,1002.18
2022-07-25T14:08:58.110Z,1002.22
2022-07-25T14:10:53.236Z,1002.25
2022-07-25T14:11:53.238Z,1002.26
2022-07-25T14:13:47.336Z,1002.28
2022-07-25T14:14:47.327Z,1002.29
2022-07-25T14:16:41.485Z,1002.28
2022-07-25T14:17:41.424Z,1002.28
2022-07-25T14:19:35.521Z,1002.24
2022-07-25T14:20:35.527Z,1002.23
2022-07-25T14:22:30.648Z,1002.22
2022-07-25T14:23:30.639Z,1002.22
2022-07-25T14:25:24.558Z,1002.27
2022-07-25T14:26:24.558Z,1002.27
2022-07-25T14:28:18.665Z,1002.22
2022-07-25T14:29:18.651Z,1002.25
2022-07-25T14:31:12.803Z,1002.26
2022-07-25T14:32:12.863Z,1002.24
2022-07-25T14:34:08.049Z,1002.28
2022-07-25T14:35:08.035Z,1002.38
2022-07-25T14:37:02.254Z,1002.40
2022-07-25T14:38:02.247Z,1002.40
2022-07-25T14:39:56.408Z,1002.38
2022-07-25T14:40:56.411Z,1002.37
2022-07-25T14:42:50.543Z,1002.44
2022-07-25T14:43:50.531Z,1002.37
2022-07-25T14:45:44.601Z,1002.35
2022-07-25T14:46:44.674Z,1002.46
2022-07-25T14:48:38.430Z,1002.29
2022-07-25T14:49:38.346Z,1002.29
2022-07-25T14:51:32.572Z,1002.34
2022-07-25T14:52:32.569Z,1002.30
2022-07-25T14:54:27.698Z,1002.39
2022-07-25T14:55:27.686Z,1002.52
2022-07-25T14:57:21.776Z,1002.50
2022-07-25T14:58:21.773Z,1002.48
2022-07-25T15:00:15.830Z,1002.46
2022-07-25T15:01:15.971Z,1002.51
2022-07-25T15:03:09.934Z,1002.46
2022-07-25T15:04:09.926Z,1002.54
2022-07-25T15:06:04.011Z,1002.56
2022-07-25T15:07:04.014Z,1002.60
2022-07-25T15:08:58.135Z,1002.59
2022-07-25T15:09:58.237Z,1002.65
2022-07-25T15:11:52.186Z,1002.58
2022-07-25T15:13:07.851Z,1002.57
2022-07-25T15:14:46.266Z,1002.62
2022-07-25T15:15:46.259Z,1002.64
2022-07-25T15:17:40.385Z,1002.63
2022-07-25T15:19:05.392Z,1002.65
2022-07-25T15:20:34.463Z,1002.64
2022-07-25T15:21:34.466Z,1002.66
2022-07-25T15:23:30.530Z,1002.73
2022-07-25T15:24:29.321Z,1002.76
2022-07-25T15:26:22.654Z,1002.81
2022-07-25T15:27:22.657Z,1002.76
2022-07-25T15:29:16.778Z,1002.81
2022-07-25T15:30:16.770Z,1002.79
2022-07-25T15:33:02.640Z,1002.84
2022-07-25T15:34:02.628Z,1002.80
2022-07-25T15:35:56.783Z,1002.73
2022-07-25T15:36:56.780Z,1002.73
2022-07-25T15:38:51.052Z,1002.77
2022-07-25T15:39:51.044Z,1002.86
2022-07-25T15:41:45.240Z,1002.87
2022-07-25T15:42:45.240Z,1002.92
2022-07-25T15:44:40.371Z,1002.99
2022-07-25T15:45:40.363Z,1003.05
2022-07-25T15:47:34.521Z,1003.08
2022-07-25T15:48:34.447Z,1003.10
2022-07-25T15:50:28.507Z,1003.12
2022-07-25T15:51:28.508Z,1003.12
2022-07-25T15:53:22.590Z,1003.12
2022-07-25T15:54:25.157Z,1003.21
2022-07-25T15:56:16.692Z,1003.24
2022-07-25T15:57:16.692Z,1003.23
2022-07-25T15:59:10.818Z,1003.32
2022-07-25T16:00:10.732Z,1003.32
2022-07-25T16:02:05.827Z,1003.43
2022-07-25T16:03:05.827Z,1003.39
2022-07-25T16:04:59.907Z,1003.39
2022-07-25T16:05:59.900Z,1003.42
2022-07-25T16:07:53.991Z,1003.48
2022-07-25T16:08:53.989Z,1003.48
2022-07-25T16:10:48.177Z,1003.51
2022-07-25T16:11:48.166Z,1003.47
2022-07-25T16:13:42.272Z,1003.58
2022-07-25T16:14:42.261Z,1003.57
2022-07-25T16:16:36.456Z,1003.51
2022-07-25T16:17:36.406Z,1003.51
2022-07-25T16:19:30.466Z,1003.56
2022-07-25T16:20:30.456Z,1003.61
2022-07-25T16:22:24.538Z,1003.67
2022-07-25T16:23:24.556Z,1003.60
2022-07-25T16:25:18.628Z,1003.64
2022-07-25T16:26:18.619Z,1003.65
2022-07-25T16:28:12.692Z,1003.66
2022-07-25T16:29:12.924Z,1003.73
2022-07-25T16:31:06.887Z,1003.67
2022-07-25T16:32:06.819Z,1003.62
2022-07-25T16:34:00.906Z,1003.65
2022-07-25T16:35:00.897Z,1003.62
2022-07-25T16:36:55.061Z,1003.62
2022-07-25T16:37:55.057Z,1003.58
2022-07-25T16:39:50.326Z,1003.69
2022-07-25T16:40:50.314Z,1003.64
2022-07-25T16:42:44.456Z,1003.60
2022-07-25T16:43:44.452Z,1003.69
2022-07-25T16:45:38.553Z,1003.63
2022-07-25T16:46:38.596Z,1003.61
2022-07-25T16:48:32.678Z,1003.58
2022-07-25T16:49:32.633Z,1003.55
2022-07-25T16:51:27.719Z,1003.56
2022-07-25T16:52:27.716Z,1003.53
2022-07-25T16:54:21.795Z,1003.52
2022-07-25T16:55:21.783Z,1003.51
2022-07-25T16:57:15.980Z,1003.60
2022-07-25T16:58:15.975Z,1003.61
2022-07-25T17:00:10.130Z,1003.61
2022-07-25T17:01:10.121Z,1003.58
2022-07-25T17:03:04.288Z,1003.64
2022-07-25T17:04:04.291Z,1003.62
2022-07-25T17:05:58.386Z,1003.69
2022-07-25T17:06:58.378Z,1003.66
2022-07-25T17:08:52.539Z,1003.67
2022-07-25T17:09:52.528Z,1003.67
2022-07-25T17:11:46.671Z,1003.68
2022-07-25T17:12:46.669Z,1003.69
2022-07-25T17:14:40.445Z,1003.66
2022-07-25T17:15:40.505Z,1003.66
2022-07-25T17:17:34.541Z,1003.67
2022-07-25T17:18:34.535Z,1003.68
2022-07-25T17:20:28.633Z,1003.75
2022-07-25T17:21:28.625Z,1003.74
2022-07-25T17:23:22.781Z,1003.75
2022-07-25T17:24:22.762Z,1003.72
2022-07-25T17:26:16.887Z,1003.77
2022-07-25T17:27:16.885Z,1003.73
2022-07-25T17:29:11.116Z,1003.71
2022-07-25T17:30:10.981Z,1003.72
2022-07-25T17:32:05.050Z,1003.69
2022-07-25T17:33:05.046Z,1003.70